MONTHLY CLIMATOLOGICAL SUMMARY for JAN. 2021

NAME:    CITY:  STATE: 
ELEV:  LAT:  LONG: 

                            TEMPERATURE ( C), RAIN (mm), WIND SPEED (kmh)

                                               HEAT     COOL           AVG
      MEAN                                     DEG      DEG            WIND                       DOM
DAY   TEMP    HIGH   TIME     LOW    TIME      DAYS     DAYS    RAIN   SPEED    HIGH    TIME      DIR
--------------------------------------------------------------------------------------------------------
01    60.0    60.0   00:00    60.0   00:00     00.0     41.7    00.0   01.0     12.9    13:42     WSW
02    60.0    60.0   00:00    60.0   00:00     00.0     41.7    00.0   00.9     16.6    12:41      SW
03    60.0    60.0   00:00    60.0   00:00     00.0     41.7    00.0   01.4     14.8    16:01     SSW
04    60.0    60.0   00:00    60.0   00:00     00.0     41.7    00.0   03.3     29.6    15:11     SSW
05    60.0    60.0   00:00    60.0   00:00     00.0     41.7    00.0   04.0     22.2    12:13      NW
06    60.0    60.0   00:00    60.0   00:00     00.0     41.7    00.0   00.7     11.1    14:13     WSW
07    60.0    60.0   00:00    60.0   00:00     00.0     41.7    00.3   00.6     09.3    12:44     WSW
08    60.0    60.0   00:00    60.0   00:00     00.0     41.7    00.0   00.7     09.3    13:39     WSW
09    60.0    60.0   00:00    60.0   00:00     00.0     41.7    01.5   01.9     24.1    12:06     WSW
10    60.0    60.0   00:00    60.0   00:00     00.0     41.7    00.0   02.0     24.1    13:34     SSW
11    60.0    60.0   00:00    60.0   00:00     00.0     41.7    00.0   03.5     25.9    00:00      S 
12    60.0    60.0   00:00    60.0   00:00     00.0     41.7    00.0   04.3     27.8    14:41     SSW
13    60.0    60.0   00:00    60.0   00:00     00.0     41.7    00.0   10.0     40.7    14:27      NW
14    60.0    60.0   00:00    60.0   00:00     00.0     41.7    00.0   10.9     46.3    10:46      NW
15    60.0    60.0   00:00    60.0   00:00     00.0     41.7    00.6   02.4     22.2    12:23      NW
16    60.0    60.0   00:00    60.0   00:00     00.0     41.7    00.3   04.6     37.0    17:39      NW
17    60.0    60.0   00:00    60.0   00:00     00.0     41.7    15.0   08.8     35.1    14:29     NNW
18    60.0    60.0   00:00    60.0   00:00     00.0     41.7    30.9   03.1     25.9    19:18     NNW
19    60.0    60.0   00:00    60.0   00:00     00.0     41.7    06.3   09.8     37.0    23:24     NNW
20    60.0    60.0   00:00    60.0   00:00     00.0     41.7    00.0   06.9     31.4    00:37     NNW
21    60.0    60.0   00:00    60.0   00:00     00.0     41.7    00.0   00.6     11.1    11:38      W 
22    60.0    60.0   00:00    60.0   00:00     00.0     41.7    00.0   00.4     11.1    14:26     WSW
23    60.0    60.0   00:00    60.0   00:00     00.0     41.7    00.3   01.0     14.8    13:11     WSW
24    60.0    60.0   00:00    60.0   00:00     00.0     41.7    00.0   03.9     27.8    04:04     WSW
25    60.0    60.0   00:00    60.0   00:00     00.0     41.7    00.0   04.9     33.3    10:00     WSW
26    60.0    60.0   00:00    60.0   00:00     00.0     41.7    00.0   03.1     27.8    10:26      SW
27    60.0    60.0   00:00    60.0   00:00     00.0     41.7    05.7   10.0     92.5    22:03      NW
28    60.0    60.0   00:00    60.0   00:00     00.0     41.7    00.0   16.4     92.5    17:37      NW
29    60.0    60.0   00:00    60.0   00:00     00.0     41.7    00.0   21.3     92.5    00:00      NW
--------------------------------------------------------------------------------------------------------
60.0 (60.0)   60.0  day 30     60.0  day 30   000.0    1209.3   283.5   04.9     92.5   day 30     WNW
Max >=  30: 29
Max Rain: 30.9 ON 18-01-21
Days of Rain: 9 (> .2mm) 4 (> 2mm) 1 (> 20mm)